createdAt,value
2023-04-25T00:00:26.171Z,3.50
2023-04-25T00:02:54.270Z,3.53
2023-04-25T00:05:24.395Z,3.51
2023-04-25T00:07:52.311Z,3.44
2023-04-25T00:10:20.650Z,3.56
2023-04-25T00:12:48.923Z,3.55
2023-04-25T00:15:17.126Z,3.53
2023-04-25T00:17:46.605Z,3.54
2023-04-25T00:20:14.658Z,3.50
2023-04-25T00:22:43.778Z,3.51
2023-04-25T00:25:11.563Z,3.52
2023-04-25T00:27:40.097Z,3.41
2023-04-25T00:30:09.175Z,3.32
2023-04-25T00:32:37.117Z,3.39
2023-04-25T00:35:05.613Z,3.47
2023-04-25T00:37:33.511Z,3.49
2023-04-25T00:40:03.607Z,3.43
2023-04-25T00:42:32.998Z,3.45
2023-04-25T00:45:01.034Z,3.40
2023-04-25T00:47:30.910Z,3.37
2023-04-25T00:49:58.652Z,3.40
2023-04-25T00:52:26.620Z,3.41
2023-04-25T00:54:54.443Z,3.42
2023-04-25T00:57:23.592Z,3.38
2023-04-25T00:59:54.250Z,3.35
2023-04-25T01:02:23.031Z,3.35
2023-04-25T01:04:50.969Z,3.25
2023-04-25T01:07:19.179Z,3.16
2023-04-25T01:09:48.190Z,3.16
2023-04-25T01:12:16.463Z,3.14
2023-04-25T01:14:46.048Z,3.11
2023-04-25T01:17:15.890Z,3.05
2023-04-25T01:19:44.066Z,3.07
2023-04-25T01:22:13.376Z,3.09
2023-04-25T01:24:41.345Z,3.06
2023-04-25T01:27:09.577Z,3.13
2023-04-25T01:29:38.227Z,3.15
2023-04-25T01:32:07.721Z,3.13
2023-04-25T01:34:35.684Z,3.00
2023-04-25T01:37:03.716Z,2.96
2023-04-25T01:39:32.900Z,2.97
2023-04-25T01:42:01.344Z,2.98
2023-04-25T01:44:29.441Z,2.87
2023-04-25T01:46:57.382Z,2.98
2023-04-25T01:49:25.249Z,2.92
2023-04-25T01:51:53.175Z,2.86
2023-04-25T01:54:21.264Z,2.90
2023-04-25T01:56:53.693Z,2.85
2023-04-25T01:59:22.822Z,2.82
2023-04-25T02:01:50.712Z,2.83
2023-04-25T02:04:18.827Z,2.77
2023-04-25T02:06:46.912Z,2.75
2023-04-25T02:09:14.684Z,2.67
2023-04-25T02:11:42.809Z,2.60
2023-04-25T02:14:11.913Z,2.68
2023-04-25T02:16:39.903Z,2.64
2023-04-25T02:19:08.445Z,2.58
2023-04-25T02:21:36.748Z,2.63
2023-04-25T02:24:05.325Z,2.65
2023-04-25T02:26:33.252Z,2.63
2023-04-25T02:29:04.081Z,2.61
2023-04-25T02:34:04.092Z,2.56
2023-04-25T02:36:35.205Z,2.68
2023-04-25T02:39:04.058Z,2.63
2023-04-25T02:41:31.955Z,2.58
2023-04-25T02:43:59.822Z,2.62
2023-04-25T02:46:38.443Z,2.62
2023-04-25T02:49:08.622Z,2.64
2023-04-25T02:51:36.486Z,2.67
2023-04-25T02:54:04.685Z,2.71
2023-04-25T02:56:32.450Z,2.72
2023-04-25T02:59:00.327Z,2.73
2023-04-25T03:01:28.409Z,2.71
2023-04-25T03:03:56.644Z,2.70
2023-04-25T03:06:26.090Z,2.67
2023-04-25T03:08:54.237Z,2.65
2023-04-25T03:11:22.380Z,2.61
2023-04-25T03:13:50.452Z,2.64
2023-04-25T03:16:18.894Z,2.66
2023-04-25T03:18:47.349Z,2.70
2023-04-25T03:21:15.363Z,2.76
2023-04-25T03:23:44.846Z,2.71
2023-04-25T03:26:12.777Z,2.72
2023-04-25T03:28:41.134Z,2.74
2023-04-25T03:31:08.896Z,2.73
2023-04-25T03:33:36.678Z,2.81
2023-04-25T03:36:04.924Z,2.84
2023-04-25T03:38:32.947Z,2.81
2023-04-25T03:41:02.696Z,2.75
2023-04-25T03:43:30.853Z,2.77
2023-04-25T03:45:58.967Z,2.79
2023-04-25T03:48:28.127Z,2.79
2023-04-25T03:50:56.705Z,2.78
2023-04-25T03:53:24.668Z,2.85
2023-04-25T03:55:52.529Z,2.85
2023-04-25T03:58:21.625Z,2.85
2023-04-25T04:00:49.543Z,2.85
2023-04-25T04:03:17.549Z,2.84
2023-04-25T04:05:46.269Z,2.86
2023-04-25T04:08:14.291Z,2.87
2023-04-25T04:10:42.212Z,2.93
2023-04-25T04:13:09.987Z,2.96
2023-04-25T04:15:39.464Z,2.96
2023-04-25T04:18:07.550Z,3.01
2023-04-25T04:20:35.381Z,3.01
2023-04-25T04:23:03.715Z,3.03
2023-04-25T04:25:31.764Z,3.05
2023-04-25T04:27:59.868Z,3.10
2023-04-25T04:30:30.440Z,3.18
2023-04-25T04:32:59.946Z,3.19
2023-04-25T04:35:27.832Z,3.16
2023-04-25T04:37:56.501Z,3.17
2023-04-25T04:40:24.580Z,3.19
2023-04-25T04:42:52.398Z,3.24
2023-04-25T04:45:20.277Z,3.28
2023-04-25T04:47:49.621Z,3.36
2023-04-25T04:50:19.341Z,3.41
2023-04-25T04:52:47.242Z,3.40
2023-04-25T04:55:15.270Z,3.38
2023-04-25T04:57:43.369Z,3.40
2023-04-25T05:00:12.494Z,3.52
2023-04-25T05:02:41.238Z,3.58
2023-04-25T05:05:09.968Z,3.59
2023-04-25T05:07:39.272Z,3.64
2023-04-25T05:10:08.324Z,3.63
2023-04-25T05:12:37.175Z,3.67
2023-04-25T05:15:05.716Z,3.65
2023-04-25T05:17:33.772Z,3.58
2023-04-25T05:20:01.749Z,3.61
2023-04-25T05:22:29.624Z,3.64
2023-04-25T05:24:58.851Z,3.69
2023-04-25T05:27:26.735Z,3.80
2023-04-25T05:29:54.505Z,3.77
2023-04-25T05:32:22.446Z,3.77
2023-04-25T05:34:51.066Z,3.78
2023-04-25T05:37:18.932Z,3.82
2023-04-25T05:39:46.833Z,3.84
2023-04-25T05:42:16.104Z,3.95
2023-04-25T05:44:43.943Z,4.06
2023-04-25T05:47:11.781Z,4.14
2023-04-25T05:49:41.974Z,4.13
2023-04-25T05:52:09.979Z,4.11
2023-04-25T05:54:37.953Z,4.20
2023-04-25T05:57:06.241Z,4.28
2023-04-25T05:59:35.979Z,4.40
2023-04-25T06:02:03.806Z,4.46
2023-04-25T06:06:06.917Z,4.56
2023-04-25T06:08:34.845Z,4.64
2023-04-25T06:11:02.831Z,4.59
2023-04-25T06:13:30.839Z,4.59
2023-04-25T06:15:58.673Z,4.68
2023-04-25T06:18:26.547Z,4.72
2023-04-25T06:20:54.538Z,4.73
2023-04-25T06:23:23.738Z,4.80
2023-04-25T06:25:52.146Z,4.73
2023-04-25T06:28:20.191Z,4.90
2023-04-25T06:30:48.074Z,4.88
2023-04-25T06:33:15.968Z,4.68
2023-04-25T06:35:44.058Z,4.69
2023-04-25T06:38:11.923Z,4.64
2023-04-25T06:40:41.097Z,4.55
2023-04-25T06:43:08.858Z,4.47
2023-04-25T06:45:36.816Z,4.38
2023-04-25T06:48:05.017Z,4.32
2023-04-25T06:50:32.990Z,4.29
2023-04-25T06:53:02.458Z,4.35
2023-04-25T06:55:30.546Z,4.50
2023-04-25T06:57:59.688Z,4.58
2023-04-25T07:00:27.598Z,4.61
2023-04-25T07:02:55.630Z,4.75
2023-04-25T07:05:23.586Z,4.86
2023-04-25T07:07:51.519Z,4.95
2023-04-25T07:10:19.351Z,4.99
2023-04-25T07:12:47.248Z,5.05
2023-04-25T07:15:16.483Z,5.03
2023-04-25T07:17:44.367Z,5.05
2023-04-25T07:20:12.961Z,5.11
2023-04-25T07:22:41.086Z,5.12
2023-04-25T07:25:10.113Z,5.17
2023-04-25T07:27:38.230Z,5.23
2023-04-25T07:30:07.202Z,5.31
2023-04-25T07:32:37.455Z,5.37
2023-04-25T07:35:08.012Z,5.35
2023-04-25T07:37:35.856Z,5.63
2023-04-25T07:40:04.844Z,5.69
2023-04-25T07:42:32.765Z,5.81
2023-04-25T07:45:00.596Z,5.80
2023-04-25T07:47:28.371Z,5.78
2023-04-25T07:49:58.866Z,5.86
2023-04-25T07:52:26.662Z,5.87
2023-04-25T07:54:54.590Z,5.94
2023-04-25T07:57:22.504Z,5.98
2023-04-25T07:59:50.340Z,6.17
2023-04-25T08:02:18.245Z,6.16
2023-04-25T08:04:46.316Z,6.29
2023-04-25T08:07:16.054Z,6.37
2023-04-25T08:09:43.872Z,6.56
2023-04-25T08:12:12.016Z,6.62
2023-04-25T08:14:40.823Z,6.56
2023-04-25T08:17:08.621Z,6.71
2023-04-25T08:19:36.503Z,6.81
2023-04-25T08:22:04.309Z,6.90
2023-04-25T08:24:33.411Z,6.76
2023-04-25T08:27:01.670Z,6.87
2023-04-25T08:29:29.612Z,7.03
2023-04-25T08:31:57.827Z,7.30
2023-04-25T08:34:26.718Z,7.35
2023-04-25T08:36:54.694Z,7.45
2023-04-25T08:39:22.775Z,7.61
2023-04-25T08:41:53.729Z,7.56
2023-04-25T08:44:22.345Z,7.30
2023-04-25T08:46:51.483Z,7.32
2023-04-25T08:49:20.823Z,7.05
2023-04-25T08:51:50.817Z,7.27
2023-04-25T08:54:34.606Z,7.47
2023-04-25T08:57:06.361Z,7.61
2023-04-25T08:59:35.617Z,7.84
2023-04-25T09:02:05.354Z,7.92
2023-04-25T09:04:33.657Z,7.89
2023-04-25T09:07:01.521Z,7.99
2023-04-25T09:09:29.438Z,8.15
2023-04-25T09:11:57.372Z,8.10
2023-04-25T09:14:28.909Z,7.94
2023-04-25T09:17:02.274Z,8.27
2023-04-25T09:19:40.222Z,8.22
2023-04-25T09:22:10.645Z,8.43
2023-04-25T09:24:40.435Z,8.25
2023-04-25T09:27:09.580Z,8.19
2023-04-25T09:29:41.831Z,8.40
2023-04-25T09:32:14.704Z,8.58
2023-04-25T09:34:43.443Z,8.72
2023-04-25T09:37:11.653Z,8.63
2023-04-25T09:39:41.038Z,8.36
2023-04-25T09:42:11.540Z,8.39
2023-04-25T10:07:14.244Z,9.26
2023-04-25T10:09:43.075Z,9.29
2023-04-25T10:12:11.793Z,9.43
2023-04-25T10:14:40.679Z,9.60
2023-04-25T10:17:12.394Z,9.57
2023-04-25T10:19:41.325Z,9.55
2023-04-25T10:22:17.016Z,9.26
2023-04-25T10:24:47.256Z,9.50
2023-04-25T10:27:15.749Z,9.69
2023-04-25T10:29:45.198Z,9.78
2023-04-25T10:32:13.380Z,9.89
2023-04-25T10:34:43.186Z,10.11
2023-04-25T10:37:12.642Z,10.04
2023-04-25T10:39:43.284Z,10.11
2023-04-25T10:42:11.213Z,10.05
2023-04-25T10:44:40.655Z,10.00
2023-04-25T10:47:10.630Z,10.02
2023-04-25T10:49:40.257Z,9.93
2023-04-25T10:52:29.213Z,9.98
2023-04-25T10:54:59.774Z,9.90
2023-04-25T10:57:32.347Z,9.83
2023-04-25T11:00:02.053Z,9.84
2023-04-25T11:02:30.546Z,9.72
2023-04-25T11:04:58.696Z,9.78
2023-04-25T11:07:36.072Z,9.72
2023-04-25T11:10:06.616Z,9.80
2023-04-25T11:12:35.002Z,9.77
2023-04-25T11:15:05.237Z,9.72
2023-04-25T11:17:35.148Z,9.71
2023-04-25T11:20:03.597Z,9.84
2023-04-25T11:22:31.586Z,10.02
2023-04-25T11:24:59.631Z,10.00
2023-04-25T11:27:28.912Z,10.18
2023-04-25T11:29:56.971Z,10.32
2023-04-25T11:32:27.652Z,10.22
2023-04-25T11:34:55.852Z,10.22
2023-04-25T11:37:23.906Z,10.30
2023-04-25T11:39:52.057Z,10.39
2023-04-25T11:42:20.990Z,10.27
2023-04-25T11:44:50.475Z,10.21
2023-04-25T11:47:18.335Z,10.22
2023-04-25T11:49:46.303Z,10.00
2023-04-25T11:52:14.455Z,9.91
2023-04-25T11:54:42.265Z,9.85
2023-04-25T11:57:10.913Z,9.87
2023-04-25T11:59:38.846Z,9.79
2023-04-25T12:02:08.417Z,9.68
2023-04-25T12:04:36.991Z,9.72
2023-04-25T12:07:05.136Z,9.76
2023-04-25T12:09:35.004Z,9.70
2023-04-25T12:12:04.786Z,9.77
2023-04-25T12:14:37.702Z,9.82
2023-04-25T12:17:09.123Z,9.93
2023-04-25T12:19:41.288Z,9.97
2023-04-25T12:22:22.062Z,9.97
2023-04-25T12:24:54.546Z,9.90
2023-04-25T12:27:22.754Z,9.79
2023-04-25T12:29:55.610Z,9.88
2023-04-25T12:32:23.768Z,10.01
2023-04-25T12:34:53.110Z,9.99
2023-04-25T12:37:23.238Z,9.98
2023-04-25T12:39:54.138Z,10.09
2023-04-25T12:42:22.020Z,9.91
2023-04-25T12:44:49.962Z,10.05
2023-04-25T12:47:17.845Z,9.96
2023-04-25T12:49:45.887Z,10.02
2023-04-25T12:52:15.298Z,10.17
2023-04-25T12:54:43.280Z,10.38
2023-04-25T12:57:12.351Z,10.26
2023-04-25T12:59:40.268Z,10.04
2023-04-25T13:02:08.184Z,10.03
2023-04-25T13:04:36.152Z,9.96
2023-04-25T13:07:04.543Z,9.88
2023-04-25T13:09:33.755Z,9.83
2023-04-25T13:12:01.693Z,9.81
2023-04-25T13:14:29.495Z,9.94
2023-04-25T13:16:57.552Z,9.88
2023-04-25T13:19:26.103Z,9.82
2023-04-25T13:21:54.278Z,9.75
2023-04-25T13:24:22.127Z,9.80
2023-04-25T13:26:51.553Z,9.82
2023-04-25T13:29:19.453Z,9.91
2023-04-25T13:31:47.350Z,10.17
2023-04-25T13:34:15.851Z,10.46
2023-04-25T13:36:43.739Z,10.49
2023-04-25T13:39:13.293Z,10.50
2023-04-25T13:41:41.367Z,10.79
2023-04-25T13:44:10.702Z,11.29
2023-04-25T13:49:13.248Z,11.18
2023-04-25T13:51:41.651Z,11.24
2023-04-25T13:54:09.756Z,11.22
2023-04-25T13:56:37.814Z,11.16
2023-04-25T13:59:05.755Z,11.12
2023-04-25T14:01:36.768Z,10.95
2023-04-25T14:04:06.260Z,10.86
2023-04-25T14:06:34.760Z,10.82
2023-04-25T14:09:05.539Z,10.70
2023-04-25T14:11:33.571Z,10.59
2023-04-25T14:14:01.517Z,10.55
2023-04-25T14:16:50.250Z,10.47
2023-04-25T14:19:20.299Z,10.62
2023-04-25T14:21:50.272Z,10.57
2023-04-25T14:24:18.589Z,10.68
2023-04-25T14:26:46.492Z,11.06
2023-04-25T14:29:14.656Z,11.40
2023-04-25T14:31:44.052Z,11.43
2023-04-25T14:34:12.393Z,11.37
2023-04-25T14:36:41.059Z,11.39
2023-04-25T14:39:09.926Z,11.16
2023-04-25T14:41:37.823Z,10.96
2023-04-25T14:44:06.988Z,10.85
2023-04-25T14:46:35.206Z,10.76
2023-04-25T14:49:04.782Z,10.61
2023-04-25T14:51:32.840Z,10.57
2023-04-25T14:54:00.750Z,10.44
2023-04-25T14:56:28.653Z,10.44
2023-04-25T14:58:56.577Z,10.23
2023-04-25T15:01:24.793Z,10.26
2023-04-25T15:03:53.586Z,10.13
2023-04-25T15:06:23.305Z,10.13
2023-04-25T15:08:51.372Z,10.16
2023-04-25T15:11:19.925Z,10.27
2023-04-25T15:13:47.760Z,10.36
2023-04-25T15:16:16.006Z,10.44
2023-04-25T15:18:43.945Z,10.58
2023-04-25T15:21:12.234Z,10.60
2023-04-25T15:23:41.611Z,10.86
2023-04-25T15:26:13.316Z,11.19
2023-04-25T15:28:42.370Z,11.20
2023-04-25T15:31:12.652Z,11.11
2023-04-25T15:33:40.517Z,10.86
2023-04-25T15:36:08.797Z,10.85
2023-04-25T15:38:36.738Z,10.81
2023-04-25T15:41:06.994Z,10.78
2023-04-25T15:43:36.825Z,10.70
2023-04-25T15:46:04.999Z,10.55
2023-04-25T15:48:33.549Z,10.50
2023-04-25T15:51:03.793Z,10.37
2023-04-25T15:53:31.997Z,10.17
2023-04-25T15:55:59.926Z,10.00
2023-04-25T15:58:29.067Z,10.10
2023-04-25T16:00:57.581Z,10.06
2023-04-25T16:03:26.029Z,10.26
2023-04-25T16:05:54.067Z,10.57
2023-04-25T16:08:22.353Z,11.97
2023-04-25T16:10:50.588Z,12.81
2023-04-25T16:13:18.581Z,12.88
2023-04-25T16:16:41.735Z,12.34
2023-04-25T16:19:00.718Z,11.15
2023-04-25T16:21:29.036Z,11.10
2023-04-25T16:23:57.111Z,11.60
2023-04-25T16:26:26.039Z,12.38
2023-04-25T16:31:41.786Z,11.41
2023-04-25T16:34:10.067Z,10.63
2023-04-25T16:36:38.279Z,9.83
2023-04-25T16:39:30.215Z,9.68
2023-04-25T16:42:04.677Z,9.57
2023-04-25T16:44:45.273Z,9.35
2023-04-25T16:47:25.560Z,8.92
2023-04-25T16:49:54.933Z,9.11
2023-04-25T16:52:23.902Z,9.00
2023-04-25T16:54:52.082Z,8.94
2023-04-25T16:57:25.517Z,8.93
2023-04-25T16:59:56.667Z,8.91
2023-04-25T17:02:26.616Z,8.64
2023-04-25T17:04:54.913Z,8.73
2023-04-25T17:07:24.725Z,8.75
2023-04-25T17:09:52.740Z,8.76
2023-04-25T17:12:24.501Z,8.69
2023-04-25T17:14:52.610Z,8.57
2023-04-25T17:17:21.483Z,8.50
2023-04-25T17:19:50.808Z,8.50
2023-04-25T17:22:18.820Z,8.50
2023-04-25T17:24:48.889Z,8.40
2023-04-25T17:27:16.934Z,8.37
2023-04-25T17:29:52.084Z,8.31
2023-04-25T17:32:20.149Z,8.17
2023-04-25T17:34:48.319Z,8.16
2023-04-25T17:37:21.151Z,8.17
2023-04-25T17:39:50.029Z,7.95
2023-04-25T17:42:17.947Z,8.02
2023-04-25T17:44:45.980Z,7.98
2023-04-25T17:47:13.915Z,8.05
2023-04-25T17:49:42.770Z,8.04
2023-04-25T17:52:10.683Z,8.00
2023-04-25T17:54:40.124Z,7.95
2023-04-25T17:57:08.249Z,7.88
2023-04-25T17:59:36.418Z,7.78
2023-04-25T18:02:04.439Z,7.81
2023-04-25T18:04:34.813Z,7.81
2023-04-25T18:07:05.912Z,7.85
2023-04-25T18:09:34.352Z,7.82
2023-04-25T18:12:04.641Z,7.77
2023-04-25T18:14:35.015Z,7.73
2023-04-25T18:17:04.187Z,7.71
2023-04-25T18:19:32.227Z,7.73
2023-04-25T18:22:00.199Z,7.70
2023-04-25T18:24:28.637Z,7.68
2023-04-25T18:27:00.490Z,7.54
2023-04-25T18:29:33.623Z,7.57
2023-04-25T18:32:01.952Z,7.57
2023-04-25T18:34:29.907Z,7.45
2023-04-25T18:37:00.561Z,7.55
2023-04-25T18:39:28.623Z,7.41
2023-04-25T18:42:04.212Z,7.39
2023-04-25T18:44:40.104Z,7.23
2023-04-25T18:47:10.084Z,7.24
2023-04-25T18:49:38.677Z,7.09
2023-04-25T18:52:08.669Z,7.00
2023-04-25T18:54:37.084Z,7.04
2023-04-25T18:57:06.308Z,7.02
2023-04-25T18:59:34.393Z,7.05
2023-04-25T19:02:05.327Z,6.97
2023-04-25T19:04:33.959Z,6.96
2023-04-25T19:07:02.679Z,6.98
2023-04-25T19:09:30.755Z,6.88
2023-04-25T19:11:58.675Z,6.92
2023-04-25T19:14:28.493Z,6.87
2023-04-25T19:17:00.234Z,6.83
2023-04-25T19:19:34.022Z,6.86
2023-04-25T19:22:02.043Z,6.81
2023-04-25T19:24:29.801Z,6.64
2023-04-25T19:26:57.748Z,6.71
2023-04-25T19:29:25.840Z,6.67
2023-04-25T19:31:54.633Z,6.69
2023-04-25T19:34:23.460Z,6.67
2023-04-25T19:36:54.291Z,6.71
2023-04-25T19:39:23.881Z,6.57
2023-04-25T19:41:56.806Z,6.51
2023-04-25T19:44:25.315Z,6.22
2023-04-25T19:46:53.524Z,6.48
2023-04-25T19:49:21.406Z,6.56
2023-04-25T19:51:49.286Z,6.43
2023-04-25T19:54:18.719Z,6.42
2023-04-25T19:56:46.651Z,6.41
2023-04-25T19:59:14.477Z,6.43
2023-04-25T20:01:42.452Z,6.42
2023-04-25T20:04:10.643Z,6.38
2023-04-25T20:06:38.565Z,6.28
2023-04-25T20:09:09.702Z,6.24
2023-04-25T20:11:38.916Z,6.21
2023-04-25T20:14:08.462Z,6.18
2023-04-25T20:16:36.582Z,6.19
2023-04-25T20:19:05.248Z,6.19
2023-04-25T20:21:34.299Z,6.18
2023-04-25T20:24:05.854Z,6.08
2023-04-25T20:26:34.550Z,6.11
2023-04-25T20:29:04.135Z,6.24
2023-04-25T20:31:37.043Z,6.13
2023-04-25T20:34:05.085Z,6.22
2023-04-25T20:36:33.786Z,6.20
2023-04-25T20:39:04.990Z,6.21
2023-04-25T20:41:37.736Z,6.13
2023-04-25T20:44:07.862Z,6.11
2023-04-25T20:46:36.356Z,6.09
2023-04-25T20:49:08.251Z,5.79
2023-04-25T20:51:37.284Z,5.96
2023-04-25T20:54:05.227Z,5.99
2023-04-25T20:56:33.051Z,5.95
2023-04-25T20:59:01.298Z,5.99
2023-04-25T21:01:30.607Z,5.97
2023-04-25T21:03:59.180Z,5.96
2023-04-25T21:06:27.723Z,5.85
2023-04-25T21:08:55.640Z,5.73
2023-04-25T21:11:24.111Z,5.81
2023-04-25T21:13:52.524Z,5.76
2023-04-25T21:16:20.523Z,5.80
2023-04-25T21:18:53.099Z,5.82
2023-04-25T21:21:21.320Z,5.71
2023-04-25T21:23:49.202Z,5.80
2023-04-25T21:26:17.200Z,5.47
2023-04-25T21:28:46.954Z,5.68
2023-04-25T21:31:15.219Z,5.65
2023-04-25T21:33:43.129Z,5.67
2023-04-25T21:36:12.859Z,5.71
2023-04-25T21:38:40.709Z,5.71
2023-04-25T21:41:09.915Z,5.60
2023-04-25T21:43:38.090Z,5.59
2023-04-25T21:46:22.271Z,5.65
2023-04-25T21:48:52.079Z,5.67
2023-04-25T21:51:22.245Z,5.57
2023-04-25T21:53:50.027Z,5.56
2023-04-25T21:56:17.874Z,5.50
2023-04-25T21:58:46.697Z,5.37
2023-04-25T22:01:17.467Z,5.36
2023-04-25T22:03:45.585Z,5.21
2023-04-25T22:06:13.789Z,5.17
2023-04-25T22:08:43.868Z,5.25
2023-04-25T22:11:14.980Z,5.16
2023-04-25T22:13:43.004Z,5.27
2023-04-25T22:16:12.356Z,5.24
2023-04-25T22:18:42.264Z,5.20
2023-04-25T22:21:10.391Z,5.30
2023-04-25T22:23:38.384Z,5.34
2023-04-25T22:34:24.243Z,5.46
2023-04-25T22:36:52.184Z,5.36
2023-04-25T22:39:20.403Z,5.44
2023-04-25T22:41:49.968Z,5.37
2023-04-25T22:44:17.906Z,5.31
2023-04-25T22:46:45.823Z,5.35
2023-04-25T22:49:13.739Z,5.45
2023-04-25T22:51:42.227Z,5.38
2023-04-25T22:54:10.137Z,5.32
2023-04-25T22:56:38.037Z,5.27
2023-04-25T22:59:07.368Z,5.24
2023-04-25T23:01:36.308Z,5.16
2023-04-25T23:04:05.256Z,5.07
2023-04-25T23:06:33.692Z,5.10
2023-04-25T23:09:01.630Z,5.04
2023-04-25T23:11:31.708Z,5.01
2023-04-25T23:13:59.764Z,4.89
2023-04-25T23:16:29.005Z,4.88
2023-04-25T23:18:56.872Z,4.91
2023-04-25T23:21:24.683Z,4.86
2023-04-25T23:23:52.647Z,4.79
2023-04-25T23:26:21.459Z,4.76
2023-04-25T23:28:49.993Z,4.67
2023-04-25T23:31:18.669Z,4.53
2023-04-25T23:33:48.230Z,4.29
2023-04-25T23:36:22.550Z,4.75
2023-04-25T23:38:52.610Z,4.54
2023-04-25T23:41:20.539Z,4.78
2023-04-25T23:43:48.434Z,4.85
2023-04-25T23:46:16.899Z,4.76
2023-04-25T23:48:46.485Z,4.81
2023-04-25T23:51:16.766Z,4.77
2023-04-25T23:53:46.837Z,4.77
2023-04-25T23:56:15.089Z,4.79
2023-04-25T23:58:50.483Z,4.72
